logo
Rechercher aéroport 
image banner adimage banner adimage banner ad
image banner ad

9CL6 - Valley Children's Hospital

Situé à Madera, United States

ICAO - 9CL6, IATA -

Données fournies par Airmate  

Information générale

Coordonnées: N36°52'60" W119°48'6"
Élévation : 376 feet MSL.
Variation magnétique : 13° East
Voir autres Aéroports à California

Données opérationnelles

Special qualification required
Heure actuelle UTC:
Heure actuelle locale:
Météo à : KFAT - Fresno Yosemite Intl ( 14 km )
METAR: KFAT 281253Z 32005KT 10SM CLR 18/10 A2996 RMK AO2 SLP140 T01780100
TAF: KFAT 281120Z 2812/2912 30005KT P6SM SKC
Voir NOTAMs / SUP AIP / TFR affectant cet aéroport [VIEW]
Fréquences de communication: [VIEW]

Pistes:

Coordonnées de l'aéroport

Adresse: Madera United States

Vue satellite de 9CL6